createdAt,value
2023-05-23T00:00:56.428Z,101846.27
2023-05-23T00:03:09.189Z,101847.39
2023-05-23T00:05:19.466Z,101844.98
2023-05-23T00:07:29.135Z,101838.08
2023-05-23T00:09:38.463Z,101836.90
2023-05-23T00:11:48.158Z,101834.98
2023-05-23T00:13:57.950Z,101840.06
2023-05-23T00:16:09.932Z,101834.51
2023-05-23T00:18:31.063Z,101830.46
2023-05-23T00:20:41.509Z,101828.55
2023-05-23T00:22:50.953Z,101830.37
2023-05-23T00:25:03.665Z,101828.23
2023-05-23T00:27:13.287Z,101826.40
2023-05-23T00:29:22.782Z,101827.27
2023-05-23T00:31:33.320Z,101828.79
2023-05-23T00:33:52.121Z,101824.71
2023-05-23T00:36:04.896Z,101828.22
2023-05-23T00:38:14.753Z,101828.23
2023-05-23T00:40:26.978Z,101826.47
2023-05-23T00:42:36.640Z,101828.30
2023-05-23T00:44:46.098Z,101827.90
2023-05-23T00:46:57.958Z,101827.73
2023-05-23T00:49:11.456Z,101825.52
2023-05-23T00:51:22.790Z,101824.81
2023-05-23T00:53:32.589Z,101823.86
2023-05-23T00:55:42.436Z,101823.92
2023-05-23T00:57:52.427Z,101819.55
2023-05-23T01:00:02.486Z,101820.20
2023-05-23T01:02:15.252Z,101809.33
2023-05-23T01:04:27.223Z,101810.84
2023-05-23T01:06:37.242Z,101808.94
2023-05-23T01:08:46.803Z,101811.08
2023-05-23T01:11:04.029Z,101812.67
2023-05-23T01:13:23.639Z,101811.00
2023-05-23T01:15:43.989Z,101811.72
2023-05-23T01:18:00.479Z,101809.95
2023-05-23T01:20:13.482Z,101811.31
2023-05-23T01:22:34.746Z,101805.10
2023-05-23T01:24:53.932Z,101804.92
2023-05-23T01:27:26.329Z,101802.40
2023-05-23T01:29:40.296Z,101803.17
2023-05-23T01:31:51.813Z,101801.27
2023-05-23T01:34:02.820Z,101803.18
2023-05-23T01:36:23.102Z,101804.22
2023-05-23T01:38:34.166Z,101802.70
2023-05-23T01:40:43.564Z,101805.07
2023-05-23T01:42:53.790Z,101804.60
2023-05-23T01:45:03.738Z,101805.84
2023-05-23T01:47:14.544Z,101803.91
2023-05-23T01:49:25.772Z,101808.88
2023-05-23T01:51:34.525Z,101803.67
2023-05-23T01:53:45.207Z,101808.20
2023-05-23T01:55:55.334Z,101802.63
2023-05-23T01:58:06.796Z,101807.92
2023-05-23T02:00:17.349Z,101808.61
2023-05-23T02:02:28.855Z,101805.23
2023-05-23T02:04:38.731Z,101808.47
2023-05-23T02:06:48.124Z,101804.09
2023-05-23T02:08:57.394Z,101802.79
2023-05-23T02:11:08.921Z,101804.21
2023-05-23T02:13:21.953Z,101800.09
2023-05-23T02:15:31.921Z,101803.75
2023-05-23T02:17:41.826Z,101802.14
2023-05-23T02:19:51.285Z,101801.16
2023-05-23T02:22:01.369Z,101801.06
2023-05-23T02:24:10.802Z,101800.42
2023-05-23T02:26:23.400Z,101802.30
2023-05-23T02:28:32.929Z,101801.91
2023-05-23T02:30:42.309Z,101804.03
2023-05-23T02:32:53.647Z,101801.70
2023-05-23T02:35:03.445Z,101802.54
2023-05-23T02:37:16.844Z,101799.39
2023-05-23T02:39:26.125Z,101798.88
2023-05-23T02:41:39.188Z,101798.71
2023-05-23T02:43:52.338Z,101796.37
2023-05-23T02:46:02.026Z,101797.04
2023-05-23T02:48:12.339Z,101799.20
2023-05-23T02:50:41.838Z,101801.35
2023-05-23T02:52:52.088Z,101795.78
2023-05-23T02:55:10.767Z,101796.52
2023-05-23T02:57:25.656Z,101797.73
2023-05-23T02:59:46.048Z,101796.27
2023-05-23T03:01:55.606Z,101801.36
2023-05-23T03:04:09.103Z,101802.54
2023-05-23T03:06:22.779Z,101802.61
2023-05-23T03:08:32.731Z,101805.95
2023-05-23T03:10:42.054Z,101805.05
2023-05-23T03:12:54.578Z,101807.64
2023-05-23T03:15:04.440Z,101810.69
2023-05-23T03:17:17.722Z,101813.80
2023-05-23T03:19:27.841Z,101816.50
2023-05-23T03:21:37.599Z,101819.91
2023-05-23T03:23:53.296Z,101817.77
2023-05-23T03:26:03.910Z,101815.14
2023-05-23T03:28:17.182Z,101818.68
2023-05-23T03:30:30.079Z,101816.66
2023-05-23T03:32:39.565Z,101818.77
2023-05-23T03:34:58.989Z,101819.44
2023-05-23T03:37:08.560Z,101817.71
2023-05-23T03:39:18.051Z,101822.20
2023-05-23T03:41:27.756Z,101825.96
2023-05-23T03:43:40.419Z,101823.02
2023-05-23T03:45:49.986Z,101825.92
2023-05-23T03:48:03.425Z,101827.89
2023-05-23T03:50:22.740Z,101823.13
2023-05-23T03:52:32.181Z,101825.98
2023-05-23T03:54:43.009Z,101820.11
2023-05-23T03:56:53.460Z,101820.92
2023-05-23T03:59:06.148Z,101822.79
2023-05-23T04:01:16.041Z,101822.14
2023-05-23T04:03:26.619Z,101823.65
2023-05-23T04:05:45.826Z,101825.19
2023-05-23T04:07:55.851Z,101831.72
2023-05-23T04:10:06.708Z,101831.98
2023-05-23T04:12:25.345Z,101835.89
2023-05-23T04:14:35.115Z,101835.20
2023-05-23T04:16:45.253Z,101834.52
2023-05-23T04:18:55.895Z,101835.38
2023-05-23T04:21:09.160Z,101837.88
2023-05-23T04:23:23.769Z,101832.94
2023-05-23T04:25:36.917Z,101836.95
2023-05-23T04:27:54.711Z,101834.98
2023-05-23T04:30:14.702Z,101832.84
2023-05-23T04:32:27.536Z,101837.77
2023-05-23T04:34:41.580Z,101837.01
2023-05-23T04:36:51.771Z,101843.91
2023-05-23T04:39:04.855Z,101846.24
2023-05-23T04:41:16.751Z,101840.63
2023-05-23T04:43:44.823Z,101846.59
2023-05-23T04:46:07.546Z,101845.25
2023-05-23T04:48:21.965Z,101849.64
2023-05-23T04:50:33.654Z,101847.80
2023-05-23T04:52:43.650Z,101849.30
2023-05-23T04:54:54.507Z,101849.73
2023-05-23T04:57:04.482Z,101852.64
2023-05-23T04:59:18.363Z,101846.98
2023-05-23T05:01:28.426Z,101850.66
2023-05-23T05:03:42.127Z,101854.80
2023-05-23T05:06:12.157Z,101859.95
2023-05-23T05:08:21.388Z,101857.13
2023-05-23T05:10:31.422Z,101859.95
2023-05-23T05:12:41.603Z,101859.56
2023-05-23T05:14:53.602Z,101859.36
2023-05-23T05:17:03.295Z,101859.48
2023-05-23T05:19:20.095Z,101858.99
2023-05-23T05:21:29.717Z,101862.98
2023-05-23T05:23:39.771Z,101863.52
2023-05-23T05:25:51.705Z,101867.63
2023-05-23T05:28:03.491Z,101865.52
2023-05-23T05:30:24.159Z,101868.95
2023-05-23T05:32:38.550Z,101872.02
2023-05-23T05:34:49.529Z,101870.98
2023-05-23T05:37:00.799Z,101871.21
2023-05-23T05:39:10.513Z,101871.85
2023-05-23T05:41:19.862Z,101869.06
2023-05-23T05:43:31.799Z,101872.46
2023-05-23T05:45:41.484Z,101873.34
2023-05-23T05:47:51.034Z,101874.39
2023-05-23T05:50:02.065Z,101871.63
2023-05-23T05:52:12.632Z,101872.29
2023-05-23T05:54:22.553Z,101872.11
2023-05-23T05:56:32.534Z,101870.72
2023-05-23T05:58:46.054Z,101870.55
2023-05-23T06:00:55.755Z,101868.64
2023-05-23T06:03:08.574Z,101864.95
2023-05-23T06:05:41.249Z,101865.50
2023-05-23T06:07:51.965Z,101865.47
2023-05-23T06:10:01.530Z,101863.42
2023-05-23T06:12:11.611Z,101862.92
2023-05-23T06:14:20.859Z,101860.61
2023-05-23T06:16:30.928Z,101862.55
2023-05-23T06:18:44.001Z,101864.94
2023-05-23T06:20:53.629Z,101864.80
2023-05-23T06:23:05.962Z,101864.94
2023-05-23T06:25:15.452Z,101864.40
2023-05-23T06:27:27.994Z,101866.46
2023-05-23T06:29:37.796Z,101868.31
2023-05-23T06:31:50.457Z,101864.89
2023-05-23T06:34:02.893Z,101862.28
2023-05-23T06:36:12.494Z,101862.18
2023-05-23T06:38:22.221Z,101862.38
2023-05-23T06:40:32.007Z,101857.44
2023-05-23T06:42:42.006Z,101858.23
2023-05-23T06:45:00.017Z,101859.19
2023-05-23T06:47:10.013Z,101856.86
2023-05-23T06:49:20.317Z,101856.63
2023-05-23T06:51:32.918Z,101857.13
2023-05-23T06:53:42.948Z,101854.29
2023-05-23T06:56:01.858Z,101857.10
2023-05-23T06:58:15.057Z,101851.68
2023-05-23T07:00:28.766Z,101858.15
2023-05-23T07:02:45.972Z,101856.77
2023-05-23T07:04:55.842Z,101852.38
2023-05-23T07:07:26.372Z,101851.60
2023-05-23T07:09:52.564Z,101850.71
2023-05-23T07:12:02.128Z,101849.85
2023-05-23T07:14:17.021Z,101845.09
2023-05-23T07:16:29.528Z,101848.44
2023-05-23T07:18:43.428Z,101851.24
2023-05-23T07:20:52.811Z,101851.11
2023-05-23T07:23:12.474Z,101849.20
2023-05-23T07:25:23.725Z,101852.67
2023-05-23T07:27:33.003Z,101851.20
2023-05-23T07:29:42.790Z,101850.91
2023-05-23T07:31:53.912Z,101849.44
2023-05-23T07:34:03.822Z,101847.63
2023-05-23T07:36:19.603Z,101849.73
2023-05-23T07:38:30.277Z,101847.58
2023-05-23T07:40:58.911Z,101848.90
2023-05-23T07:43:16.744Z,101846.77
2023-05-23T07:45:26.422Z,101846.42
2023-05-23T07:47:36.173Z,101847.23
2023-05-23T07:49:46.094Z,101848.73
2023-05-23T07:51:58.659Z,101847.57
2023-05-23T07:54:11.559Z,101846.99
2023-05-23T07:56:23.518Z,101850.15
2023-05-23T07:58:32.856Z,101846.55
2023-05-23T08:00:45.729Z,101847.01
2023-05-23T08:03:01.805Z,101847.64
2023-05-23T08:05:15.706Z,101848.27
2023-05-23T08:07:25.387Z,101846.27
2023-05-23T08:09:40.711Z,101845.33
2023-05-23T08:11:50.746Z,101847.54
2023-05-23T08:14:11.108Z,101843.35
2023-05-23T08:16:29.931Z,101851.86
2023-05-23T08:18:40.241Z,101850.77
2023-05-23T08:20:49.601Z,101849.87
2023-05-23T08:22:59.224Z,101852.43
2023-05-23T08:25:09.770Z,101845.67
2023-05-23T08:27:21.849Z,101847.90
2023-05-23T08:29:35.479Z,101845.29
2023-05-23T08:31:55.004Z,101847.97
2023-05-23T08:34:04.621Z,101844.14
2023-05-23T08:36:14.164Z,101846.40
2023-05-23T08:38:25.148Z,101847.99
2023-05-23T08:40:53.601Z,101846.53
2023-05-23T08:43:04.225Z,101847.36
2023-05-23T08:45:14.942Z,101847.16
2023-05-23T08:47:28.106Z,101842.76
2023-05-23T08:49:42.674Z,101843.05
2023-05-23T08:51:58.853Z,101847.64
2023-05-23T08:54:13.506Z,101843.59
2023-05-23T08:56:24.775Z,101842.89
2023-05-23T08:58:35.899Z,101841.83
2023-05-23T09:00:46.622Z,101841.08
2023-05-23T09:03:00.786Z,101843.00
2023-05-23T09:05:31.720Z,101843.54
2023-05-23T09:07:41.053Z,101841.09
2023-05-23T09:09:51.337Z,101839.09
2023-05-23T09:12:05.376Z,101840.67
2023-05-23T09:14:18.381Z,101840.77
2023-05-23T09:16:33.955Z,101838.60
2023-05-23T09:18:47.143Z,101838.43
2023-05-23T09:20:57.971Z,101835.82
2023-05-23T09:23:10.011Z,101832.41
2023-05-23T09:25:22.115Z,101832.20
2023-05-23T09:27:36.504Z,101834.25
2023-05-23T09:29:47.765Z,101833.37
2023-05-23T09:32:12.126Z,101830.20
2023-05-23T09:34:24.852Z,101826.34
2023-05-23T09:36:48.991Z,101826.15
2023-05-23T09:39:00.087Z,101826.98
2023-05-23T09:41:13.983Z,101826.20
2023-05-23T09:43:25.882Z,101824.83
2023-05-23T09:45:35.648Z,101821.77
2023-05-23T09:47:53.459Z,101824.86
2023-05-23T09:50:02.951Z,101822.86
2023-05-23T09:52:12.959Z,101816.64
2023-05-23T09:54:22.364Z,101818.88
2023-05-23T09:56:31.947Z,101811.63
2023-05-23T09:58:45.749Z,101815.33
2023-05-23T10:03:36.893Z,101802.38
2023-05-23T10:06:12.537Z,101800.77
2023-05-23T10:08:30.301Z,101797.31
2023-05-23T10:11:07.945Z,101791.24
2023-05-23T10:13:30.182Z,101795.48
2023-05-23T10:15:44.555Z,101796.75
2023-05-23T10:18:13.035Z,101795.80
2023-05-23T10:20:27.028Z,101797.70
2023-05-23T10:22:40.837Z,101792.10
2023-05-23T10:24:50.550Z,101788.98
2023-05-23T10:27:00.108Z,101786.00
2023-05-23T10:29:10.644Z,101784.78
2023-05-23T10:31:22.431Z,101781.98
2023-05-23T10:33:34.828Z,101780.58
2023-05-23T10:35:54.245Z,101784.25
2023-05-23T10:38:10.574Z,101783.58
2023-05-23T10:40:30.406Z,101786.98
2023-05-23T10:42:57.904Z,101785.33
2023-05-23T10:45:21.769Z,101788.17
2023-05-23T10:47:31.852Z,101789.26
2023-05-23T10:49:46.423Z,101784.12
2023-05-23T10:51:56.337Z,101786.98
2023-05-23T10:54:12.435Z,101784.84
2023-05-23T10:56:41.999Z,101787.73
2023-05-23T10:59:21.480Z,101783.11
2023-05-23T11:01:30.874Z,101785.43
2023-05-23T11:03:54.006Z,101783.98
2023-05-23T11:06:06.069Z,101782.42
2023-05-23T11:08:18.128Z,101781.41
2023-05-23T11:10:27.754Z,101781.17
2023-05-23T11:12:45.217Z,101778.20
2023-05-23T11:14:58.325Z,101782.34
2023-05-23T11:17:19.901Z,101780.86
2023-05-23T11:19:38.682Z,101780.27
2023-05-23T11:22:10.239Z,101781.17
2023-05-23T11:24:19.436Z,101781.45
2023-05-23T11:26:35.621Z,101780.27
2023-05-23T11:29:01.791Z,101775.80
2023-05-23T11:31:11.994Z,101773.94
2023-05-23T11:33:21.696Z,101772.36
2023-05-23T11:35:34.494Z,101768.58
2023-05-23T11:37:45.312Z,101766.23
2023-05-23T11:39:54.519Z,101768.54
2023-05-23T11:42:07.992Z,101764.58
2023-05-23T11:44:20.639Z,101762.27
2023-05-23T11:46:30.564Z,101764.80
2023-05-23T11:48:46.189Z,101765.70
2023-05-23T11:50:58.599Z,101765.56
2023-05-23T11:53:08.669Z,101769.69
2023-05-23T11:55:18.507Z,101768.95
2023-05-23T11:57:28.326Z,101768.33
2023-05-23T11:59:38.183Z,101767.72
2023-05-23T12:01:47.705Z,101766.05
2023-05-23T12:04:00.481Z,101768.57
2023-05-23T12:06:12.730Z,101764.55
2023-05-23T12:08:23.495Z,101765.58
2023-05-23T12:10:32.861Z,101768.83
2023-05-23T12:12:44.272Z,101766.74
2023-05-23T12:14:59.558Z,101761.78
2023-05-23T12:17:21.662Z,101763.66
2023-05-23T12:19:31.433Z,101761.25
2023-05-23T12:21:48.254Z,101760.16
2023-05-23T12:24:01.747Z,101758.94
2023-05-23T12:26:11.715Z,101760.10
2023-05-23T12:28:36.046Z,101756.23
2023-05-23T12:31:13.108Z,101753.65
2023-05-23T12:33:23.831Z,101754.88
2023-05-23T12:35:33.156Z,101754.64
2023-05-23T12:37:52.137Z,101752.39
2023-05-23T12:40:14.610Z,101748.70
2023-05-23T12:42:23.996Z,101743.99
2023-05-23T12:44:35.486Z,101741.23
2023-05-23T12:46:44.997Z,101742.20
2023-05-23T12:48:55.297Z,101738.86
2023-05-23T12:51:05.399Z,101738.44
2023-05-23T12:53:15.018Z,101738.11
2023-05-23T12:55:24.809Z,101735.88
2023-05-23T12:57:38.452Z,101739.98
2023-05-23T13:00:10.350Z,101742.02
2023-05-23T13:02:20.150Z,101735.28
2023-05-23T13:04:41.153Z,101733.80
2023-05-23T13:06:50.258Z,101729.09
2023-05-23T13:08:59.709Z,101735.48
2023-05-23T13:11:09.559Z,101737.43
2023-05-23T13:13:18.901Z,101741.90
2023-05-23T13:15:29.648Z,101740.88
2023-05-23T13:17:44.406Z,101743.20
2023-05-23T13:20:01.457Z,101742.83
2023-05-23T13:22:11.899Z,101742.17
2023-05-23T13:24:24.272Z,101741.61
2023-05-23T13:26:37.117Z,101739.63
2023-05-23T13:28:49.805Z,101739.09
2023-05-23T13:30:58.966Z,101740.36
2023-05-23T13:33:08.497Z,101737.89
2023-05-23T13:35:17.914Z,101739.42
2023-05-23T13:37:27.296Z,101738.77
2023-05-23T13:39:40.008Z,101736.91
2023-05-23T13:41:49.386Z,101737.52
2023-05-23T13:44:02.242Z,101735.20
2023-05-23T13:46:11.906Z,101729.02
2023-05-23T13:48:21.488Z,101732.40
2023-05-23T13:50:30.962Z,101730.80
2023-05-23T13:53:00.324Z,101730.05
2023-05-23T13:55:11.494Z,101727.80
2023-05-23T13:57:20.956Z,101725.33
2023-05-23T13:59:30.438Z,101724.56
2023-05-23T14:01:39.854Z,101720.80
2023-05-23T14:03:49.244Z,101723.11
2023-05-23T14:05:58.929Z,101725.55
2023-05-23T14:08:13.786Z,101729.16
2023-05-23T14:10:21.450Z,101729.78
2023-05-23T14:12:30.885Z,101729.99
2023-05-23T14:14:40.191Z,101734.36
2023-05-23T14:16:54.617Z,101737.46
2023-05-23T14:19:04.078Z,101734.16
2023-05-23T14:21:13.576Z,101736.30
2023-05-23T14:23:43.252Z,101734.45
2023-05-23T14:26:12.596Z,101741.71
2023-05-23T14:28:24.887Z,101745.95
2023-05-23T14:30:50.628Z,101737.83
2023-05-23T14:33:11.270Z,101742.44
2023-05-23T14:35:22.777Z,101744.29
2023-05-23T14:37:35.131Z,101740.92
2023-05-23T14:39:44.683Z,101742.59
2023-05-23T14:42:05.235Z,101741.20
2023-05-23T14:44:14.719Z,101744.64
2023-05-23T14:46:24.061Z,101745.05
2023-05-23T14:48:47.829Z,101744.58
2023-05-23T14:51:02.269Z,101743.25
2023-05-23T14:53:31.610Z,101745.09
2023-05-23T14:55:44.444Z,101743.83
2023-05-23T14:57:54.662Z,101747.83
2023-05-23T15:00:06.137Z,101747.66
2023-05-23T15:02:24.860Z,101744.88
2023-05-23T15:04:34.499Z,101747.50
2023-05-23T15:06:44.439Z,101747.01
2023-05-23T15:08:57.203Z,101746.75
2023-05-23T15:11:07.301Z,101746.73
2023-05-23T15:13:19.712Z,101752.39
2023-05-23T15:15:38.181Z,101746.23
2023-05-23T15:17:51.299Z,101742.33
2023-05-23T15:20:02.291Z,101737.89
2023-05-23T15:22:29.845Z,101744.07
2023-05-23T15:24:51.312Z,101741.89
2023-05-23T15:27:22.566Z,101738.29
2023-05-23T15:29:33.677Z,101742.67
2023-05-23T15:31:45.929Z,101739.63
2023-05-23T15:34:15.823Z,101742.90
2023-05-23T15:36:25.288Z,101746.20
2023-05-23T15:38:34.643Z,101740.29
2023-05-23T15:40:44.380Z,101744.63
2023-05-23T15:43:03.100Z,101741.98
2023-05-23T15:45:14.300Z,101745.56
2023-05-23T15:47:43.975Z,101742.70
2023-05-23T15:49:56.217Z,101739.23
2023-05-23T15:52:16.048Z,101741.27
2023-05-23T15:54:25.442Z,101734.02
2023-05-23T15:56:34.562Z,101738.66
2023-05-23T15:58:43.927Z,101736.27
2023-05-23T16:01:03.356Z,101734.00
2023-05-23T16:03:13.462Z,101733.27
2023-05-23T16:05:33.605Z,101730.09
2023-05-23T16:07:52.070Z,101727.79
2023-05-23T16:10:14.108Z,101723.92
2023-05-23T16:12:23.829Z,101725.19
2023-05-23T16:14:33.760Z,101720.59
2023-05-23T16:16:44.022Z,101723.40
2023-05-23T16:18:53.692Z,101727.80
2023-05-23T16:21:06.249Z,101726.23
2023-05-23T16:23:26.163Z,101726.38
2023-05-23T16:25:35.599Z,101726.16
2023-05-23T16:27:50.797Z,101726.23
2023-05-23T16:30:00.428Z,101725.17
2023-05-23T16:32:13.541Z,101718.82
2023-05-23T16:34:22.902Z,101717.37
2023-05-23T16:36:43.968Z,101716.23
2023-05-23T16:39:02.873Z,101718.30
2023-05-23T16:41:12.525Z,101711.56
2023-05-23T16:43:24.888Z,101711.40
2023-05-23T16:45:34.253Z,101708.76
2023-05-23T16:47:44.038Z,101709.51
2023-05-23T16:49:53.213Z,101710.69
2023-05-23T16:52:05.467Z,101706.60
2023-05-23T16:54:15.396Z,101705.05
2023-05-23T16:56:24.816Z,101702.59
2023-05-23T16:58:36.359Z,101697.06
2023-05-23T17:00:45.909Z,101699.60
2023-05-23T17:02:55.435Z,101696.90
2023-05-23T17:05:16.337Z,101696.96
2023-05-23T17:07:25.568Z,101694.82
2023-05-23T17:09:39.367Z,101695.27
2023-05-23T17:11:51.736Z,101690.13
2023-05-23T17:14:01.256Z,101695.23
2023-05-23T17:16:14.164Z,101694.73
2023-05-23T17:18:23.741Z,101694.38
2023-05-23T17:20:43.955Z,101693.55
2023-05-23T17:23:13.474Z,101692.65
2023-05-23T17:25:27.475Z,101688.67
2023-05-23T17:27:38.133Z,101688.98
2023-05-23T17:29:47.718Z,101688.58
2023-05-23T17:31:57.102Z,101686.17
2023-05-23T17:34:18.254Z,101685.49
2023-05-23T17:36:27.404Z,101689.10
2023-05-23T17:38:56.751Z,101686.48
2023-05-23T17:41:27.124Z,101685.67
2023-05-23T17:43:47.560Z,101680.73
2023-05-23T17:46:00.439Z,101682.87
2023-05-23T17:48:12.924Z,101682.88
2023-05-23T17:50:23.450Z,101682.52
2023-05-23T17:52:43.035Z,101680.80
2023-05-23T17:54:52.567Z,101680.33
2023-05-23T17:57:12.411Z,101681.84
2023-05-23T17:59:21.936Z,101684.13
2023-05-23T18:01:31.871Z,101686.09
2023-05-23T18:03:45.207Z,101684.38
2023-05-23T18:06:07.645Z,101679.23
2023-05-23T18:08:20.309Z,101682.08
2023-05-23T18:10:49.797Z,101677.30
2023-05-23T18:13:04.949Z,101678.90
2023-05-23T18:15:34.343Z,101679.53
2023-05-23T18:17:43.998Z,101683.63
2023-05-23T18:20:14.359Z,101683.71
2023-05-23T18:22:43.734Z,101692.66
2023-05-23T18:24:56.345Z,101689.97
2023-05-23T18:27:26.348Z,101689.48
2023-05-23T18:29:38.890Z,101687.54
2023-05-23T18:31:57.178Z,101685.20
2023-05-23T18:34:12.345Z,101682.43
2023-05-23T18:36:33.388Z,101682.73
2023-05-23T18:38:46.606Z,101684.95
2023-05-23T18:40:55.862Z,101683.48
2023-05-23T18:43:26.189Z,101686.02
2023-05-23T18:45:37.123Z,101681.63
2023-05-23T18:47:56.457Z,101681.13
2023-05-23T18:50:10.728Z,101682.43
2023-05-23T18:52:31.057Z,101681.02
2023-05-23T18:54:53.860Z,101684.20
2023-05-23T18:57:03.601Z,101680.10
2023-05-23T18:59:16.124Z,101679.13
2023-05-23T19:01:25.587Z,101676.76
2023-05-23T19:03:37.463Z,101671.50
2023-05-23T19:05:50.720Z,101665.92
2023-05-23T19:08:03.753Z,101668.41
2023-05-23T19:10:14.397Z,101666.71
2023-05-23T19:12:24.029Z,101661.86
2023-05-23T19:14:38.706Z,101659.08
2023-05-23T19:17:00.638Z,101657.49
2023-05-23T19:19:39.664Z,101657.81
2023-05-23T19:21:49.222Z,101654.56
2023-05-23T19:23:58.619Z,101656.65
2023-05-23T19:26:08.376Z,101655.51
2023-05-23T19:28:21.070Z,101657.93
2023-05-23T19:30:30.598Z,101659.33
2023-05-23T19:32:40.091Z,101656.30
2023-05-23T19:34:49.790Z,101658.11
2023-05-23T19:37:01.051Z,101653.79
2023-05-23T19:39:10.309Z,101657.05
2023-05-23T19:41:20.330Z,101660.94
2023-05-23T19:43:29.685Z,101657.36
2023-05-23T19:45:39.102Z,101653.20
2023-05-23T19:47:48.516Z,101651.09
2023-05-23T19:49:58.035Z,101653.02
2023-05-23T19:52:08.053Z,101647.85
2023-05-23T19:54:17.527Z,101648.26
2023-05-23T19:56:27.686Z,101643.85
2023-05-23T19:58:37.200Z,101641.13
2023-05-23T20:00:57.678Z,101638.45
2023-05-23T20:03:07.204Z,101635.13
2023-05-23T20:05:17.689Z,101633.74
2023-05-23T20:07:27.207Z,101631.60
2023-05-23T20:09:36.747Z,101630.42
2023-05-23T20:11:49.556Z,101624.90
2023-05-23T20:13:58.817Z,101620.02
2023-05-23T20:16:09.334Z,101612.28
2023-05-23T20:18:19.101Z,101609.85
2023-05-23T20:20:28.767Z,101612.27
2023-05-23T20:22:38.084Z,101612.93
2023-05-23T20:24:48.113Z,101602.89
2023-05-23T20:27:01.302Z,101601.23
2023-05-23T20:29:10.597Z,101599.61
2023-05-23T20:31:21.362Z,101593.89
2023-05-23T20:33:40.753Z,101594.70
2023-05-23T20:35:50.601Z,101592.26
2023-05-23T20:37:59.895Z,101592.34
2023-05-23T20:40:11.258Z,101589.80
2023-05-23T20:42:21.126Z,101583.82
2023-05-23T20:44:30.556Z,101581.90
2023-05-23T20:46:43.969Z,101583.38
2023-05-23T20:48:57.798Z,101578.61
2023-05-23T20:51:07.958Z,101578.23
2023-05-23T20:53:17.370Z,101572.10
2023-05-23T20:55:28.970Z,101571.23
2023-05-23T20:57:37.416Z,101569.39
2023-05-23T20:59:46.830Z,101570.74
2023-05-23T21:01:56.600Z,101569.21
2023-05-23T21:04:06.332Z,101563.37
2023-05-23T21:06:15.725Z,101560.33
2023-05-23T21:08:25.339Z,101560.48
2023-05-23T21:10:34.599Z,101556.50
2023-05-23T21:12:49.576Z,101553.05
2023-05-23T21:14:59.172Z,101548.11
2023-05-23T21:17:08.945Z,101546.84
2023-05-23T21:19:18.686Z,101543.33
2023-05-23T21:21:28.280Z,101544.08
2023-05-23T21:23:38.205Z,101540.83
2023-05-23T21:25:47.657Z,101537.90
2023-05-23T21:27:57.062Z,101532.64
2023-05-23T21:30:06.899Z,101532.44
2023-05-23T21:32:16.868Z,101536.10
2023-05-23T21:34:26.257Z,101533.41
2023-05-23T21:36:35.544Z,101535.39
2023-05-23T21:38:44.935Z,101537.09
2023-05-23T21:40:54.715Z,101532.73
2023-05-23T21:43:04.491Z,101533.48
2023-05-23T21:45:17.226Z,101527.48
2023-05-23T21:47:26.606Z,101526.00
2023-05-23T21:49:35.961Z,101523.39
2023-05-23T21:51:45.232Z,101518.96
2023-05-23T21:53:54.798Z,101518.58
2023-05-23T21:56:04.186Z,101512.96
2023-05-23T21:58:13.241Z,101518.29
2023-05-23T22:00:24.200Z,101515.13
2023-05-23T22:02:34.588Z,101514.75
2023-05-23T22:04:45.262Z,101513.26
2023-05-23T22:06:54.677Z,101506.52
2023-05-23T22:09:04.025Z,101500.27
2023-05-23T22:11:13.234Z,101501.70
2023-05-23T22:13:22.550Z,101502.27
2023-05-23T22:15:32.835Z,101497.27
2023-05-23T22:17:43.891Z,101498.61
2023-05-23T22:19:53.444Z,101496.77
2023-05-23T22:22:02.960Z,101489.86
2023-05-23T22:24:12.364Z,101495.88
2023-05-23T22:26:22.280Z,101491.44
2023-05-23T22:28:35.920Z,101488.25
2023-05-23T22:30:45.238Z,101488.66
2023-05-23T22:32:58.180Z,101485.77
2023-05-23T22:35:08.113Z,101481.17
2023-05-23T22:37:20.859Z,101481.73
2023-05-23T22:39:30.286Z,101479.50
2023-05-23T22:41:39.568Z,101472.04
2023-05-23T22:43:49.077Z,101468.61
2023-05-23T22:45:58.635Z,101469.48
2023-05-23T22:48:18.711Z,101469.00
2023-05-23T22:50:27.976Z,101465.35
2023-05-23T22:52:40.752Z,101461.77
2023-05-23T22:54:54.382Z,101463.73
2023-05-23T22:57:03.973Z,101462.11
2023-05-23T22:59:13.218Z,101460.85
2023-05-23T23:01:22.697Z,101461.83
2023-05-23T23:03:32.593Z,101461.39
2023-05-23T23:05:42.414Z,101456.95
2023-05-23T23:07:52.099Z,101454.88
2023-05-23T23:10:05.543Z,101454.70
2023-05-23T23:12:14.869Z,101453.18
2023-05-23T23:14:27.720Z,101447.33
2023-05-23T23:16:40.039Z,101450.83
2023-05-23T23:18:59.546Z,101453.38
2023-05-23T23:21:11.843Z,101450.91
2023-05-23T23:23:24.638Z,101448.65
2023-05-23T23:25:33.922Z,101444.48
2023-05-23T23:27:46.514Z,101442.38
2023-05-23T23:29:56.355Z,101441.06
2023-05-23T23:32:05.781Z,101443.27
2023-05-23T23:34:15.395Z,101446.10
2023-05-23T23:36:24.716Z,101442.05
2023-05-23T23:38:34.289Z,101442.69
2023-05-23T23:40:45.869Z,101437.63
2023-05-23T23:42:53.402Z,101436.05
2023-05-23T23:45:03.033Z,101440.59
2023-05-23T23:47:12.920Z,101439.58
2023-05-23T23:49:22.365Z,101439.83
2023-05-23T23:51:32.534Z,101441.11
2023-05-23T23:53:42.139Z,101439.16
2023-05-23T23:55:52.199Z,101438.46
2023-05-23T23:58:01.553Z,101439.84
